sensor_id;sensor_type;location;lat;lon;timestamp;pressure;altitude;pressure_sealevel;temperature;humidity
65760;BME280;52496;51.082;5.066;2023-02-22T00:00:00;101437.00;;;5.26;100.00
65760;BME280;52496;51.082;5.066;2023-02-22T00:02:31;101438.53;;;5.28;100.00
65760;BME280;52496;51.082;5.066;2023-02-22T00:05:03;101438.97;;;5.24;100.00
65760;BME280;52496;51.082;5.066;2023-02-22T00:07:34;101435.34;;;5.25;100.00
65760;BME280;52496;51.082;5.066;2023-02-22T00:10:05;101437.28;;;5.23;100.00
65760;BME280;52496;51.082;5.066;2023-02-22T00:12:42;101433.66;;;5.24;100.00
65760;BME280;52496;51.082;5.066;2023-02-22T00:15:14;101427.53;;;5.23;100.00
65760;BME280;52496;51.082;5.066;2023-02-22T00:17:46;101434.50;;;5.24;100.00
65760;BME280;52496;51.082;5.066;2023-02-22T00:20:16;101444.00;;;5.27;100.00
65760;BME280;52496;51.082;5.066;2023-02-22T00:22:49;101431.44;;;5.29;100.00
65760;BME280;52496;51.082;5.066;2023-02-22T00:25:23;101433.13;;;5.30;100.00
65760;BME280;52496;51.082;5.066;2023-02-22T00:27:54;101424.72;;;5.25;100.00
65760;BME280;52496;51.082;5.066;2023-02-22T00:30:27;101429.19;;;5.24;100.00
65760;BME280;52496;51.082;5.066;2023-02-22T00:32:59;101426.66;;;5.23;100.00
65760;BME280;52496;51.082;5.066;2023-02-22T00:35:30;101437.88;;;5.26;100.00
65760;BME280;52496;51.082;5.066;2023-02-22T00:38:02;101429.91;;;5.26;100.00
65760;BME280;52496;51.082;5.066;2023-02-22T00:40:34;101428.50;;;5.32;100.00
65760;BME280;52496;51.082;5.066;2023-02-22T00:43:05;101430.19;;;5.33;100.00
65760;BME280;52496;51.082;5.066;2023-02-22T00:45:36;101429.38;;;5.33;100.00
65760;BME280;52496;51.082;5.066;2023-02-22T00:48:07;101428.66;;;5.31;100.00
65760;BME280;52496;51.082;5.066;2023-02-22T00:50:38;101429.50;;;5.31;100.00
65760;BME280;52496;51.082;5.066;2023-02-22T00:53:10;101439.53;;;5.27;100.00
65760;BME280;52496;51.082;5.066;2023-02-22T00:55:40;101430.31;;;5.22;100.00
65760;BME280;52496;51.082;5.066;2023-02-22T00:58:11;101421.50;;;5.21;100.00
65760;BME280;52496;51.082;5.066;2023-02-22T01:00:42;101428.22;;;5.25;100.00
65760;BME280;52496;51.082;5.066;2023-02-22T01:03:15;101426.41;;;5.26;100.00
65760;BME280;52496;51.082;5.066;2023-02-22T01:05:46;101418.44;;;5.26;100.00
65760;BME280;52496;51.082;5.066;2023-02-22T01:08:17;101417.75;;;5.24;100.00
65760;BME280;52496;51.082;5.066;2023-02-22T01:10:47;101421.09;;;5.26;100.00
65760;BME280;52496;51.082;5.066;2023-02-22T01:13:18;101408.69;;;5.26;100.00
65760;BME280;52496;51.082;5.066;2023-02-22T01:15:49;101403.13;;;5.29;100.00
65760;BME280;52496;51.082;5.066;2023-02-22T01:18:20;101405.63;;;5.31;100.00
65760;BME280;52496;51.082;5.066;2023-02-22T01:20:51;101402.13;;;5.31;100.00
65760;BME280;52496;51.082;5.066;2023-02-22T01:23:21;101405.50;;;5.33;100.00
65760;BME280;52496;51.082;5.066;2023-02-22T01:25:52;101401.97;;;5.32;100.00
65760;BME280;52496;51.082;5.066;2023-02-22T01:28:22;101390.69;;;5.30;100.00
65760;BME280;52496;51.082;5.066;2023-02-22T01:30:53;101386.34;;;5.29;100.00
65760;BME280;52496;51.082;5.066;2023-02-22T01:33:25;101389.28;;;5.26;100.00
65760;BME280;52496;51.082;5.066;2023-02-22T01:35:56;101385.94;;;5.24;100.00
65760;BME280;52496;51.082;5.066;2023-02-22T01:38:26;101393.88;;;5.24;100.00
65760;BME280;52496;51.082;5.066;2023-02-22T01:40:57;101393.88;;;5.24;100.00
65760;BME280;52496;51.082;5.066;2023-02-22T01:43:30;101391.91;;;5.26;100.00
65760;BME280;52496;51.082;5.066;2023-02-22T01:46:20;101383.97;;;5.26;100.00
65760;BME280;52496;51.082;5.066;2023-02-22T01:48:55;101396.28;;;5.27;100.00
65760;BME280;52496;51.082;5.066;2023-02-22T01:51:32;101385.94;;;5.24;100.00
65760;BME280;52496;51.082;5.066;2023-02-22T01:54:14;101389.28;;;5.26;100.00
65760;BME280;52496;51.082;5.066;2023-02-22T01:56:58;101378.66;;;5.26;100.00
65760;BME280;52496;51.082;5.066;2023-02-22T01:59:32;101366.38;;;5.25;100.00
65760;BME280;52496;51.082;5.066;2023-02-22T02:02:03;101373.34;;;5.26;100.00
65760;BME280;52496;51.082;5.066;2023-02-22T02:04:35;101372.69;;;5.24;100.00
65760;BME280;52496;51.082;5.066;2023-02-22T02:07:08;101367.50;;;5.22;100.00
65760;BME280;52496;51.082;5.066;2023-02-22T02:09:58;101369.03;;;5.25;100.00
65760;BME280;52496;51.082;5.066;2023-02-22T02:12:32;101367.50;;;5.22;100.00
65760;BME280;52496;51.082;5.066;2023-02-22T02:15:26;101363.44;;;5.18;100.00
65760;BME280;52496;51.082;5.066;2023-02-22T02:18:04;101357.31;;;5.18;100.00
65760;BME280;52496;51.082;5.066;2023-02-22T02:35:24;101347.81;;;5.15;100.00
65760;BME280;52496;51.082;5.066;2023-02-22T02:38:02;101342.78;;;5.12;100.00
65760;BME280;52496;51.082;5.066;2023-02-22T02:40:42;101346.28;;;5.13;100.00
65760;BME280;52496;51.082;5.066;2023-02-22T02:46:37;101344.59;;;5.12;100.00
65760;BME280;52496;51.082;5.066;2023-02-22T02:49:16;101337.03;;;5.07;100.00
65760;BME280;52496;51.082;5.066;2023-02-22T02:51:51;101334.81;;;5.02;100.00
65760;BME280;52496;51.082;5.066;2023-02-22T02:54:23;101331.19;;;5.03;100.00
65760;BME280;52496;51.082;5.066;2023-02-22T02:56:55;101316.38;;;5.01;100.00
65760;BME280;52496;51.082;5.066;2023-02-22T02:59:36;101311.09;;;5.01;100.00
65760;BME280;52496;51.082;5.066;2023-02-22T03:05:20;101307.59;;;5.00;100.00
65760;BME280;52496;51.082;5.066;2023-02-22T03:08:03;101308.44;;;5.01;100.00
65760;BME280;52496;51.082;5.066;2023-02-22T03:19:26;101297.13;;;4.99;100.00
65760;BME280;52496;51.082;5.066;2023-02-22T03:24:40;101283.59;;;4.92;100.00
65760;BME280;52496;51.082;5.066;2023-02-22T03:30:01;101284.69;;;4.90;100.00
65760;BME280;52496;51.082;5.066;2023-02-22T03:32:36;101275.06;;;4.89;100.00
65760;BME280;52496;51.082;5.066;2023-02-22T03:35:27;101273.97;;;4.91;100.00
65760;BME280;52496;51.082;5.066;2023-02-22T03:38:03;101270.31;;;4.92;100.00
65760;BME280;52496;51.082;5.066;2023-02-22T03:40:43;101274.22;;;4.88;100.00
65760;BME280;52496;51.082;5.066;2023-02-22T03:43:21;101282.91;;;4.90;100.00
65760;BME280;52496;51.082;5.066;2023-02-22T03:45:54;101274.22;;;4.88;100.00
65760;BME280;52496;51.082;5.066;2023-02-22T03:51:06;101261.97;;;4.87;100.00
65760;BME280;52496;51.082;5.066;2023-02-22T03:53:37;101260.00;;;4.89;100.00
65760;BME280;52496;51.082;5.066;2023-02-22T03:56:09;101250.13;;;4.91;100.00
65760;BME280;52496;51.082;5.066;2023-02-22T03:58:43;101253.03;;;4.88;100.00
65760;BME280;52496;51.082;5.066;2023-02-22T04:01:15;101249.69;;;4.86;100.00
65760;BME280;52496;51.082;5.066;2023-02-22T04:03:45;101246.75;;;4.89;100.00
65760;BME280;52496;51.082;5.066;2023-02-22T04:06:16;101237.13;;;4.88;100.00
65760;BME280;52496;51.082;5.066;2023-02-22T04:08:47;101238.81;;;4.89;100.00
65760;BME280;52496;51.082;5.066;2023-02-22T04:11:18;101241.59;;;4.88;100.00
65760;BME280;52496;51.082;5.066;2023-02-22T04:13:49;101236.31;;;4.88;100.00
65760;BME280;52496;51.082;5.066;2023-02-22T04:16:20;101241.03;;;4.84;100.00
65760;BME280;52496;51.082;5.066;2023-02-22T04:18:50;101228.75;;;4.83;100.00
65760;BME280;52496;51.082;5.066;2023-02-22T04:21:21;101231.56;;;4.81;100.00
65760;BME280;52496;51.082;5.066;2023-02-22T04:23:51;101233.22;;;4.82;100.00
65760;BME280;52496;51.082;5.066;2023-02-22T04:26:22;101225.41;;;4.81;100.00
65760;BME280;52496;51.082;5.066;2023-02-22T04:28:52;101224.56;;;4.80;100.00
65760;BME280;52496;51.082;5.066;2023-02-22T04:31:23;101219.41;;;4.79;100.00
65760;BME280;52496;51.082;5.066;2023-02-22T04:33:53;101225.69;;;4.78;100.00
65760;BME280;52496;51.082;5.066;2023-02-22T04:36:24;101222.59;;;4.73;100.00
65760;BME280;52496;51.082;5.066;2023-02-22T04:38:57;101217.84;;;4.67;100.00
65760;BME280;52496;51.082;5.066;2023-02-22T04:41:27;101209.19;;;4.65;100.00
65760;BME280;52496;51.082;5.066;2023-02-22T04:43:58;101206.44;;;4.66;100.00
65760;BME280;52496;51.082;5.066;2023-02-22T04:46:28;101210.47;;;4.70;100.00
65760;BME280;52496;51.082;5.066;2023-02-22T04:49:00;101205.44;;;4.67;100.00
65760;BME280;52496;51.082;5.066;2023-02-22T04:51:31;101207.25;;;4.67;100.00
65760;BME280;52496;51.082;5.066;2023-02-22T04:54:01;101203.06;;;4.64;100.00
65760;BME280;52496;51.082;5.066;2023-02-22T04:56:32;101191.91;;;4.60;100.00
65760;BME280;52496;51.082;5.066;2023-02-22T04:59:02;101201.81;;;4.58;100.00
65760;BME280;52496;51.082;5.066;2023-02-22T05:01:34;101203.50;;;4.59;100.00
65760;BME280;52496;51.082;5.066;2023-02-22T05:04:06;101201.81;;;4.58;100.00
65760;BME280;52496;51.082;5.066;2023-02-22T05:06:36;101197.47;;;4.57;100.00
65760;BME280;52496;51.082;5.066;2023-02-22T05:09:07;101193.28;;;4.55;100.00
65760;BME280;52496;51.082;5.066;2023-02-22T05:11:37;101182.81;;;4.53;100.00
65760;BME280;52496;51.082;5.066;2023-02-22T05:14:08;101189.09;;;4.52;100.00
65760;BME280;52496;51.082;5.066;2023-02-22T05:16:38;101176.84;;;4.51;100.00
65760;BME280;52496;51.082;5.066;2023-02-22T05:19:09;101181.31;;;4.51;100.00
65760;BME280;52496;51.082;5.066;2023-02-22T05:21:39;101175.16;;;4.50;100.00
65760;BME280;52496;51.082;5.066;2023-02-22T05:24:10;101171.81;;;4.48;100.00
65760;BME280;52496;51.082;5.066;2023-02-22T05:26:44;101178.78;;;4.49;100.00
65760;BME280;52496;51.082;5.066;2023-02-22T05:29:15;101160.41;;;4.48;100.00
65760;BME280;52496;51.082;5.066;2023-02-22T05:31:45;101162.44;;;4.44;100.00
65760;BME280;52496;51.082;5.066;2023-02-22T05:34:16;101159.69;;;4.46;100.00
65760;BME280;52496;51.082;5.066;2023-02-22T05:36:46;101146.16;;;4.39;100.00
65760;BME280;52496;51.082;5.066;2023-02-22T05:39:17;101154.78;;;4.41;100.00
65760;BME280;52496;51.082;5.066;2023-02-22T05:41:47;101142.53;;;4.40;100.00
65760;BME280;52496;51.082;5.066;2023-02-22T05:44:18;101138.22;;;4.39;100.00
65760;BME280;52496;51.082;5.066;2023-02-22T05:46:49;101133.19;;;4.36;100.00
65760;BME280;52496;51.082;5.066;2023-02-22T05:49:19;101126.34;;;4.33;100.00
65760;BME280;52496;51.082;5.066;2023-02-22T05:51:50;101127.19;;;4.34;100.00
65760;BME280;52496;51.082;5.066;2023-02-22T05:54:21;101135.13;;;4.34;100.00
65760;BME280;52496;51.082;5.066;2023-02-22T05:56:51;101128.16;;;4.33;100.00
65760;BME280;52496;51.082;5.066;2023-02-22T05:59:22;101124.69;;;4.32;100.00
65760;BME280;52496;51.082;5.066;2023-02-22T06:01:52;101128.28;;;4.31;100.00
65760;BME280;52496;51.082;5.066;2023-02-22T06:04:23;101124.09;;;4.29;100.00
65760;BME280;52496;51.082;5.066;2023-02-22T06:06:53;101122.44;;;4.28;100.00
65760;BME280;52496;51.082;5.066;2023-02-22T06:09:24;101117.69;;;4.22;100.00
65760;BME280;52496;51.082;5.066;2023-02-22T06:11:54;101127.28;;;4.23;100.00
65760;BME280;52496;51.082;5.066;2023-02-22T06:14:25;101115.19;;;4.20;100.00
65760;BME280;52496;51.082;5.066;2023-02-22T06:16:56;101113.66;;;4.18;100.00
65760;BME280;52496;51.082;5.066;2023-02-22T06:19:27;101104.00;;;4.17;100.00
65760;BME280;52496;51.082;5.066;2023-02-22T06:21:57;101101.78;;;4.12;100.00
65760;BME280;52496;51.082;5.066;2023-02-22T06:24:29;101108.47;;;4.06;100.00
65760;BME280;52496;51.082;5.066;2023-02-22T06:27:01;101104.44;;;4.02;100.00
65760;BME280;52496;51.082;5.066;2023-02-22T06:29:31;101106.50;;;3.99;100.00
65760;BME280;52496;51.082;5.066;2023-02-22T06:32:02;101105.22;;;3.93;100.00
65760;BME280;52496;51.082;5.066;2023-02-22T06:34:33;101115.09;;;3.91;100.00
65760;BME280;52496;51.082;5.066;2023-02-22T06:37:03;101097.13;;;3.85;100.00
65760;BME280;52496;51.082;5.066;2023-02-22T06:39:34;101106.31;;;3.81;100.00
65760;BME280;52496;51.082;5.066;2023-02-22T06:42:04;101114.25;;;3.81;100.00
65760;BME280;52496;51.082;5.066;2023-02-22T06:44:35;101119.81;;;3.78;100.00
65760;BME280;52496;51.082;5.066;2023-02-22T06:47:06;101118.09;;;3.77;100.00
65760;BME280;52496;51.082;5.066;2023-02-22T06:49:42;101115.88;;;3.72;100.00
65760;BME280;52496;51.082;5.066;2023-02-22T06:52:13;101115.31;;;3.68;100.00
65760;BME280;52496;51.082;5.066;2023-02-22T06:54:44;101114.44;;;3.68;100.00
65760;BME280;52496;51.082;5.066;2023-02-22T06:57:15;101113.88;;;3.64;100.00
65760;BME280;52496;51.082;5.066;2023-02-22T06:59:46;101118.06;;;3.67;100.00
65760;BME280;52496;51.082;5.066;2023-02-22T07:02:17;101120.59;;;3.68;100.00
65760;BME280;52496;51.082;5.066;2023-02-22T07:04:48;101121.44;;;3.69;100.00
65760;BME280;52496;51.082;5.066;2023-02-22T07:07:21;101119.47;;;3.71;100.00
65760;BME280;52496;51.082;5.066;2023-02-22T07:09:54;101123.66;;;3.74;100.00
65760;BME280;52496;51.082;5.066;2023-02-22T07:12:32;101118.09;;;3.77;100.00
65760;BME280;52496;51.082;5.066;2023-02-22T07:15:04;101116.19;;;3.79;100.00
65760;BME280;52496;51.082;5.066;2023-02-22T07:17:34;101105.31;;;3.82;100.00
65760;BME280;52496;51.082;5.066;2023-02-22T07:20:06;101094.47;;;3.85;100.00
65760;BME280;52496;51.082;5.066;2023-02-22T07:22:38;101111.75;;;3.89;100.00
65760;BME280;52496;51.082;5.066;2023-02-22T07:25:09;101119.16;;;3.95;100.00
65760;BME280;52496;51.082;5.066;2023-02-22T07:27:41;101110.66;;;4.01;100.00
65760;BME280;52496;51.082;5.066;2023-02-22T07:32:46;101123.81;;;4.12;100.00
65760;BME280;52496;51.082;5.066;2023-02-22T07:35:20;101120.75;;;4.17;100.00
65760;BME280;52496;51.082;5.066;2023-02-22T07:37:51;101122.16;;;4.21;100.00
65760;BME280;52496;51.082;5.066;2023-02-22T07:40:23;101121.72;;;4.26;100.00
65760;BME280;52496;51.082;5.066;2023-02-22T07:43:03;101109.09;;;4.29;100.00
65760;BME280;52496;51.082;5.066;2023-02-22T07:45:35;101110.19;;;4.36;100.00
65760;BME280;52496;51.082;5.066;2023-02-22T07:48:06;101112.13;;;4.44;100.00
65760;BME280;52496;51.082;5.066;2023-02-22T07:50:37;101123.88;;;4.51;100.00
65760;BME280;52496;51.082;5.066;2023-02-22T07:53:14;101121.78;;;4.55;100.00
65760;BME280;52496;51.082;5.066;2023-02-22T07:55:45;101130.84;;;4.62;100.00
65760;BME280;52496;51.082;5.066;2023-02-22T07:58:19;101131.16;;;4.69;100.00
65760;BME280;52496;51.082;5.066;2023-02-22T08:00:50;101121.94;;;4.73;100.00
65760;BME280;52496;51.082;5.066;2023-02-22T08:03:23;101124.84;;;4.79;100.00
65760;BME280;52496;51.082;5.066;2023-02-22T08:05:56;101118.88;;;4.87;100.00
65760;BME280;52496;51.082;5.066;2023-02-22T08:08:26;101113.00;;;4.93;100.00
65760;BME280;52496;51.082;5.066;2023-02-22T08:10:57;101118.56;;;5.00;100.00
65760;BME280;52496;51.082;5.066;2023-02-22T08:13:28;101121.34;;;5.08;100.00
65760;BME280;52496;51.082;5.066;2023-02-22T08:15:59;101118.81;;;5.16;100.00
65760;BME280;52496;51.082;5.066;2023-02-22T08:18:30;101115.03;;;5.28;100.00
65760;BME280;52496;51.082;5.066;2023-02-22T08:21:00;101106.22;;;5.38;100.00
65760;BME280;52496;51.082;5.066;2023-02-22T08:23:34;101099.91;;;5.48;100.00
65760;BME280;52496;51.082;5.066;2023-02-22T08:26:10;101101.22;;;5.62;100.00
65760;BME280;52496;51.082;5.066;2023-02-22T08:28:44;101104.53;;;5.74;100.00
65760;BME280;52496;51.082;5.066;2023-02-22T08:31:15;101107.97;;;5.84;100.00
65760;BME280;52496;51.082;5.066;2023-02-22T08:33:47;101108.53;;;5.97;100.00
65760;BME280;52496;51.082;5.066;2023-02-22T08:36:18;101114.31;;;6.11;100.00
65760;BME280;52496;51.082;5.066;2023-02-22T08:38:48;101109.50;;;6.24;100.00
65760;BME280;52496;51.082;5.066;2023-02-22T08:41:19;101104.34;;;6.40;100.00
65760;BME280;52496;51.082;5.066;2023-02-22T08:43:50;101098.50;;;6.55;100.00
65760;BME280;52496;51.082;5.066;2023-02-22T08:46:20;101099.66;;;6.70;100.00
65760;BME280;52496;51.082;5.066;2023-02-22T08:48:51;101087.63;;;6.84;100.00
65760;BME280;52496;51.082;5.066;2023-02-22T08:51:22;101095.03;;;6.98;100.00
65760;BME280;52496;51.082;5.066;2023-02-22T08:53:53;101093.94;;;7.09;100.00
65760;BME280;52496;51.082;5.066;2023-02-22T08:56:24;101082.69;;;7.15;100.00
65760;BME280;52496;51.082;5.066;2023-02-22T08:58:55;101082.28;;;7.28;100.00
65760;BME280;52496;51.082;5.066;2023-02-22T09:01:26;101087.88;;;7.43;100.00
65760;BME280;52496;51.082;5.066;2023-02-22T09:03:58;101085.91;;;7.53;100.00
65760;BME280;52496;51.082;5.066;2023-02-22T09:06:28;101098.28;;;7.62;100.00
65760;BME280;52496;51.082;5.066;2023-02-22T09:08:59;101096.31;;;7.72;100.00
65760;BME280;52496;51.082;5.066;2023-02-22T09:11:30;101092.38;;;7.85;100.00
65760;BME280;52496;51.082;5.066;2023-02-22T09:14:00;101088.75;;;7.94;100.00
65760;BME280;52496;51.082;5.066;2023-02-22T09:16:31;101088.00;;;8.10;100.00
65760;BME280;52496;51.082;5.066;2023-02-22T09:19:03;101080.16;;;8.24;100.00
65760;BME280;52496;51.082;5.066;2023-02-22T09:21:33;101080.91;;;8.43;100.00
65760;BME280;52496;51.082;5.066;2023-02-22T09:24:04;101084.28;;;8.61;100.00
65760;BME280;52496;51.082;5.066;2023-02-22T09:26:37;101091.13;;;8.80;100.00
65760;BME280;52496;51.082;5.066;2023-02-22T09:29:08;101079.59;;;8.96;100.00
65760;BME280;52496;51.082;5.066;2023-02-22T09:31:40;101088.59;;;9.11;100.00
65760;BME280;52496;51.082;5.066;2023-02-22T09:34:11;101076.56;;;9.24;100.00
65760;BME280;52496;51.082;5.066;2023-02-22T09:36:46;101083.88;;;9.38;100.00
65760;BME280;52496;51.082;5.066;2023-02-22T09:39:17;101082.16;;;9.53;100.00
65760;BME280;52496;51.082;5.066;2023-02-22T09:45:11;101088.50;;;9.92;100.00
65760;BME280;52496;51.082;5.066;2023-02-22T09:47:50;101096.47;;;10.08;100.00
65760;BME280;52496;51.082;5.066;2023-02-22T09:50:25;101086.03;;;10.21;100.00
65760;BME280;52496;51.082;5.066;2023-02-22T09:53:22;101077.81;;;10.31;100.00
65760;BME280;52496;51.082;5.066;2023-02-22T09:56:03;101084.41;;;10.43;100.00
65760;BME280;52496;51.082;5.066;2023-02-22T09:58:39;101093.69;;;10.55;100.00
65760;BME280;52496;51.082;5.066;2023-02-22T10:01:34;101078.72;;;10.69;100.00
65760;BME280;52496;51.082;5.066;2023-02-22T10:07:26;101085.34;;;10.96;100.00
65760;BME280;52496;51.082;5.066;2023-02-22T10:09:59;101087.56;;;11.08;100.00
65760;BME280;52496;51.082;5.066;2023-02-22T10:26:48;101080.78;;;11.49;100.00
65760;BME280;52496;51.082;5.066;2023-02-22T10:32:16;101073.59;;;11.65;100.00
65760;BME280;52496;51.082;5.066;2023-02-22T10:34:50;101083.56;;;11.71;100.00
65760;BME280;52496;51.082;5.066;2023-02-22T10:37:33;101082.28;;;11.67;100.00
65760;BME280;52496;51.082;5.066;2023-02-22T10:40:16;101077.56;;;11.69;100.00
65760;BME280;52496;51.082;5.066;2023-02-22T10:42:52;101081.25;;;11.68;100.00
65760;BME280;52496;51.082;5.066;2023-02-22T10:45:28;101081.69;;;11.71;100.00
65760;BME280;52496;51.082;5.066;2023-02-22T10:48:10;101071.66;;;11.74;99.98
65760;BME280;52496;51.082;5.066;2023-02-22T10:50:44;101078.66;;;11.75;99.49
65760;BME280;52496;51.082;5.066;2023-02-22T10:53:16;101082.44;;;11.80;100.00
65760;BME280;52496;51.082;5.066;2023-02-22T10:56:15;101077.09;;;11.80;100.00
65760;BME280;52496;51.082;5.066;2023-02-22T10:59:01;101074.31;;;11.74;99.59
65760;BME280;52496;51.082;5.066;2023-02-22T11:01:36;101079.88;;;11.72;100.00
65760;BME280;52496;51.082;5.066;2023-02-22T11:04:17;101077.81;;;11.74;100.00
65760;BME280;52496;51.082;5.066;2023-02-22T11:07:06;101076.25;;;11.80;100.00
65760;BME280;52496;51.082;5.066;2023-02-22T11:09:52;101071.00;;;11.86;100.00
65760;BME280;52496;51.082;5.066;2023-02-22T11:12:30;101067.31;;;11.87;100.00
65760;BME280;52496;51.082;5.066;2023-02-22T11:17:55;101061.97;;;11.87;100.00
65760;BME280;52496;51.082;5.066;2023-02-22T11:20:29;101066.00;;;11.83;100.00
65760;BME280;52496;51.082;5.066;2023-02-22T11:23:04;101059.56;;;11.78;100.00
65760;BME280;52496;51.082;5.066;2023-02-22T11:25:39;101056.41;;;11.74;100.00
65760;BME280;52496;51.082;5.066;2023-02-22T11:28:24;101055.94;;;11.70;100.00
65760;BME280;52496;51.082;5.066;2023-02-22T11:31:13;101054.47;;;11.68;100.00
65760;BME280;52496;51.082;5.066;2023-02-22T11:33:59;101053.34;;;11.62;100.00
65760;BME280;52496;51.082;5.066;2023-02-22T11:36:35;101049.22;;;11.60;100.00
65760;BME280;52496;51.082;5.066;2023-02-22T11:41:55;101046.78;;;11.65;100.00
65760;BME280;52496;51.082;5.066;2023-02-22T11:44:28;101037.56;;;11.67;100.00
65760;BME280;52496;51.082;5.066;2023-02-22T11:47:01;101044.03;;;11.73;100.00
65760;BME280;52496;51.082;5.066;2023-02-22T11:49:38;101042.25;;;11.80;100.00
65760;BME280;52496;51.082;5.066;2023-02-22T11:52:35;101038.03;;;11.86;100.00
65760;BME280;52496;51.082;5.066;2023-02-22T12:01:28;101034.06;;;12.18;100.00
65760;BME280;52496;51.082;5.066;2023-02-22T12:15:58;101040.47;;;12.60;100.00
65760;BME280;52496;51.082;5.066;2023-02-22T12:19:19;101030.59;;;12.67;100.00
65760;BME280;52496;51.082;5.066;2023-02-22T12:21:59;101037.75;;;12.81;100.00
65760;BME280;52496;51.082;5.066;2023-02-22T12:24:42;101036.59;;;12.91;100.00
65760;BME280;52496;51.082;5.066;2023-02-22T12:27:24;101042.56;;;12.93;100.00
65760;BME280;52496;51.082;5.066;2023-02-22T12:30:04;101036.41;;;12.99;100.00
65760;BME280;52496;51.082;5.066;2023-02-22T12:32:40;101035.41;;;13.00;100.00
65760;BME280;52496;51.082;5.066;2023-02-22T12:40:49;101023.50;;;13.09;99.36
65760;BME280;52496;51.082;5.066;2023-02-22T12:43:30;101036.09;;;13.08;99.21
65760;BME280;52496;51.082;5.066;2023-02-22T12:46:16;101030.53;;;13.10;100.00
65760;BME280;52496;51.082;5.066;2023-02-22T12:51:53;101043.69;;;13.05;98.68
65760;BME280;52496;51.082;5.066;2023-02-22T12:54:36;101037.88;;;13.01;99.23
65760;BME280;52496;51.082;5.066;2023-02-22T12:59:54;101038.25;;;12.92;99.80
65760;BME280;52496;51.082;5.066;2023-02-22T13:05:01;101037.75;;;12.81;100.00
65760;BME280;52496;51.082;5.066;2023-02-22T13:07:59;101037.88;;;12.73;99.63
65760;BME280;52496;51.082;5.066;2023-02-22T13:10:28;101032.25;;;12.68;100.00
65760;BME280;52496;51.082;5.066;2023-02-22T13:13:26;101038.41;;;12.62;100.00
65760;BME280;52496;51.082;5.066;2023-02-22T13:16:03;101035.88;;;12.54;100.00
65760;BME280;52496;51.082;5.066;2023-02-22T13:21:43;101044.09;;;12.52;100.00
65760;BME280;52496;51.082;5.066;2023-02-22T13:24:24;101032.16;;;12.55;100.00
65760;BME280;52496;51.082;5.066;2023-02-22T13:26:59;101033.03;;;12.62;100.00
65760;BME280;52496;51.082;5.066;2023-02-22T13:29:37;101028.38;;;12.71;100.00
65760;BME280;52496;51.082;5.066;2023-02-22T13:43:34;101026.13;;;12.74;100.00
65760;BME280;52496;51.082;5.066;2023-02-22T13:46:35;101022.81;;;12.72;100.00
65760;BME280;52496;51.082;5.066;2023-02-22T13:52:07;101026.94;;;12.75;100.00
65760;BME280;52496;51.082;5.066;2023-02-22T13:54:45;101025.72;;;12.77;100.00
65760;BME280;52496;51.082;5.066;2023-02-22T13:57:41;101024.72;;;12.78;100.00
65760;BME280;52496;51.082;5.066;2023-02-22T14:00:20;101029.44;;;12.76;99.88
65760;BME280;52496;51.082;5.066;2023-02-22T14:03:01;101032.31;;;12.75;100.00
65760;BME280;52496;51.082;5.066;2023-02-22T14:13:27;101045.03;;;12.88;100.00
65760;BME280;52496;51.082;5.066;2023-02-22T14:18:44;101044.78;;;12.82;100.00
65760;BME280;52496;51.082;5.066;2023-02-22T14:21:20;101043.94;;;12.82;100.00
65760;BME280;52496;51.082;5.066;2023-02-22T14:23:53;101045.16;;;12.79;100.00
65760;BME280;52496;51.082;5.066;2023-02-22T14:26:34;101046.38;;;12.77;100.00
65760;BME280;52496;51.082;5.066;2023-02-22T14:34:19;101045.75;;;12.53;100.00
65760;BME280;52496;51.082;5.066;2023-02-22T14:39:45;101055.66;;;12.31;100.00
65760;BME280;52496;51.082;5.066;2023-02-22T14:42:33;101056.13;;;12.20;100.00
65760;BME280;52496;51.082;5.066;2023-02-22T14:47:53;101057.66;;;12.08;100.00
65760;BME280;52496;51.082;5.066;2023-02-22T14:53:22;101054.72;;;12.03;100.00
65760;BME280;52496;51.082;5.066;2023-02-22T14:55:58;101049.75;;;12.00;100.00
65760;BME280;52496;51.082;5.066;2023-02-22T14:58:45;101049.09;;;11.98;100.00
65760;BME280;52496;51.082;5.066;2023-02-22T15:03:50;101040.59;;;11.94;100.00
65760;BME280;52496;51.082;5.066;2023-02-22T15:06:23;101041.81;;;11.91;100.00
65760;BME280;52496;51.082;5.066;2023-02-22T15:11:37;101045.06;;;11.87;100.00
65760;BME280;52496;51.082;5.066;2023-02-22T15:14:22;101052.25;;;11.86;100.00
65760;BME280;52496;51.082;5.066;2023-02-22T15:16:58;101047.09;;;11.85;100.00
65760;BME280;52496;51.082;5.066;2023-02-22T15:19:32;101044.56;;;11.83;100.00
65760;BME280;52496;51.082;5.066;2023-02-22T15:22:04;101046.59;;;11.81;100.00
65760;BME280;52496;51.082;5.066;2023-02-22T15:24:38;101051.97;;;11.81;100.00
65760;BME280;52496;51.082;5.066;2023-02-22T15:27:14;101051.97;;;11.81;100.00
65760;BME280;52496;51.082;5.066;2023-02-22T15:29:47;101056.50;;;11.81;100.00
65760;BME280;52496;51.082;5.066;2023-02-22T15:37:46;101051.03;;;11.74;100.00
65760;BME280;52496;51.082;5.066;2023-02-22T15:40:18;101063.81;;;11.72;100.00
65760;BME280;52496;51.082;5.066;2023-02-22T15:42:51;101067.03;;;11.67;100.00
65760;BME280;52496;51.082;5.066;2023-02-22T15:45:23;101059.56;;;11.63;100.00
65760;BME280;52496;51.082;5.066;2023-02-22T15:47:55;101063.63;;;11.59;100.00
65760;BME280;52496;51.082;5.066;2023-02-22T15:50:29;101060.69;;;11.54;100.00
65760;BME280;52496;51.082;5.066;2023-02-22T15:53:05;101061.22;;;11.49;100.00
65760;BME280;52496;51.082;5.066;2023-02-22T15:55:42;101056.44;;;11.44;100.00
65760;BME280;52496;51.082;5.066;2023-02-22T15:58:24;101062.97;;;11.42;100.00